createdAt,value
2023-01-19T00:00:48.590Z,18.95
2023-01-19T00:03:29.043Z,16.90
2023-01-19T00:05:57.147Z,15.27
2023-01-19T00:08:25.476Z,17.02
2023-01-19T00:10:53.582Z,21.02
2023-01-19T00:13:22.043Z,18.63
2023-01-19T00:15:50.194Z,18.90
2023-01-19T00:18:18.467Z,19.90
2023-01-19T00:20:48.346Z,18.08
2023-01-19T00:23:17.320Z,19.58
2023-01-19T00:25:45.329Z,18.20
2023-01-19T00:28:15.154Z,16.92
2023-01-19T00:30:43.764Z,19.37
2023-01-19T00:33:13.655Z,20.17
2023-01-19T00:35:42.457Z,20.25
2023-01-19T00:38:12.641Z,19.08
2023-01-19T00:40:40.758Z,19.73
2023-01-19T00:43:09.014Z,23.10
2023-01-19T00:45:37.102Z,19.02
2023-01-19T00:48:05.724Z,18.77
2023-01-19T00:50:34.051Z,21.10
2023-01-19T00:53:03.178Z,21.55
2023-01-19T00:55:33.308Z,21.20
2023-01-19T00:58:02.794Z,18.13
2023-01-19T01:00:31.142Z,20.63
2023-01-19T01:02:59.868Z,21.08
2023-01-19T01:05:28.197Z,19.10
2023-01-19T01:07:56.429Z,20.57
2023-01-19T01:10:27.193Z,21.90
2023-01-19T01:12:57.702Z,19.70
2023-01-19T01:15:27.677Z,19.70
2023-01-19T01:17:56.432Z,22.02
2023-01-19T01:20:26.933Z,21.90
2023-01-19T01:22:55.450Z,21.10
2023-01-19T01:25:25.823Z,20.67
2023-01-19T01:27:55.959Z,19.67
2023-01-19T01:30:24.647Z,21.33
2023-01-19T01:32:52.904Z,22.30
2023-01-19T01:35:21.042Z,23.00
2023-01-19T01:37:49.452Z,23.35
2023-01-19T01:40:18.787Z,20.83
2023-01-19T01:42:47.026Z,24.08
2023-01-19T01:45:33.039Z,21.77
2023-01-19T01:48:05.431Z,18.92
2023-01-19T01:50:35.340Z,22.10
2023-01-19T01:53:08.219Z,22.52
2023-01-19T01:55:38.912Z,22.52
2023-01-19T01:58:09.463Z,21.73
2023-01-19T02:00:53.286Z,20.65
2023-01-19T02:03:22.365Z,25.35
2023-01-19T02:05:50.555Z,20.83
2023-01-19T02:08:39.125Z,23.33
2023-01-19T02:11:24.703Z,19.33
2023-01-19T02:13:53.106Z,26.30
2023-01-19T02:16:22.526Z,24.27
2023-01-19T02:18:50.980Z,21.98
2023-01-19T02:21:21.071Z,23.48
2023-01-19T02:23:53.224Z,25.13
2023-01-19T02:26:22.914Z,25.23
2023-01-19T02:28:53.809Z,19.08
2023-01-19T02:31:21.775Z,21.85
2023-01-19T02:33:50.183Z,23.17
2023-01-19T02:36:19.203Z,23.27
2023-01-19T02:38:48.613Z,20.45
2023-01-19T02:41:20.690Z,34.33
2023-01-19T02:43:49.871Z,26.40
2023-01-19T02:46:17.992Z,21.75
2023-01-19T02:48:46.253Z,20.87
2023-01-19T02:51:16.891Z,22.67
2023-01-19T02:54:12.175Z,20.23
2023-01-19T02:56:51.988Z,21.40
2023-01-19T02:59:30.002Z,23.15
2023-01-19T03:02:06.193Z,26.13
2023-01-19T03:04:41.732Z,22.08
2023-01-19T03:07:12.771Z,20.75
2023-01-19T03:09:44.199Z,20.30
2023-01-19T03:12:23.521Z,21.05
2023-01-19T03:14:53.710Z,22.23
2023-01-19T03:17:22.422Z,23.35
2023-01-19T03:19:51.559Z,21.25
2023-01-19T03:22:23.119Z,20.58
2023-01-19T03:24:51.772Z,21.90
2023-01-19T03:27:25.155Z,20.57
2023-01-19T03:29:56.248Z,21.05
2023-01-19T03:32:29.629Z,21.73
2023-01-19T03:35:00.805Z,21.50
2023-01-19T03:37:29.553Z,19.85
2023-01-19T03:39:57.812Z,21.90
2023-01-19T03:42:28.656Z,19.90
2023-01-19T03:44:57.215Z,19.50
2023-01-19T03:47:26.420Z,17.15
2023-01-19T03:49:55.316Z,22.88
2023-01-19T03:52:30.250Z,21.33
2023-01-19T03:54:58.495Z,18.60
2023-01-19T03:57:27.897Z,22.80
2023-01-19T03:59:56.758Z,20.30
2023-01-19T04:02:25.167Z,18.60
2023-01-19T04:04:53.552Z,20.57
2023-01-19T04:07:21.610Z,19.95
2023-01-19T04:09:49.793Z,21.00
2023-01-19T04:12:17.740Z,21.75
2023-01-19T04:14:47.459Z,21.20
2023-01-19T04:17:16.032Z,19.97
2023-01-19T04:19:45.084Z,22.17
2023-01-19T04:22:13.076Z,20.63
2023-01-19T04:24:41.289Z,20.77
2023-01-19T04:27:09.240Z,22.52
2023-01-19T04:29:37.439Z,19.53
2023-01-19T04:32:06.999Z,22.13
2023-01-19T04:34:35.329Z,24.70
2023-01-19T04:37:03.329Z,25.23
2023-01-19T04:39:31.593Z,21.38
2023-01-19T04:42:00.732Z,21.23
2023-01-19T04:44:29.082Z,23.83
2023-01-19T04:46:57.078Z,25.85
2023-01-19T04:49:26.843Z,19.30
2023-01-19T04:51:55.066Z,21.92
2023-01-19T04:54:23.439Z,21.23
2023-01-19T04:56:51.530Z,21.40
2023-01-19T04:59:20.395Z,19.63
2023-01-19T05:01:48.494Z,22.35
2023-01-19T05:04:17.278Z,23.30
2023-01-19T05:06:46.823Z,20.17
2023-01-19T05:09:15.551Z,20.98
2023-01-19T05:11:43.543Z,21.83
2023-01-19T05:14:11.895Z,22.15
2023-01-19T05:16:39.864Z,21.65
2023-01-19T05:19:08.115Z,19.43
2023-01-19T05:21:36.127Z,24.50
2023-01-19T05:24:06.042Z,21.77
2023-01-19T05:26:34.341Z,22.70
2023-01-19T05:29:02.701Z,22.40
2023-01-19T05:31:30.789Z,22.90
2023-01-19T05:33:59.060Z,24.48
2023-01-19T05:36:27.504Z,23.65
2023-01-19T05:38:55.743Z,23.40
2023-01-19T05:41:25.095Z,25.13
2023-01-19T05:43:53.290Z,24.37
2023-01-19T05:46:21.335Z,27.80
2023-01-19T05:48:49.603Z,29.30
2023-01-19T05:51:17.893Z,27.25
2023-01-19T05:53:46.138Z,22.08
2023-01-19T05:56:14.070Z,24.43
2023-01-19T05:58:43.652Z,26.20
2023-01-19T06:01:11.741Z,25.30
2023-01-19T06:03:40.931Z,25.38
2023-01-19T06:06:09.070Z,29.25
2023-01-19T06:08:37.341Z,25.63
2023-01-19T06:11:06.846Z,25.75
2023-01-19T06:13:35.249Z,22.58
2023-01-19T06:16:04.852Z,25.00
2023-01-19T06:18:33.402Z,24.75
2023-01-19T06:21:04.559Z,28.30
2023-01-19T06:23:34.029Z,25.55
2023-01-19T06:26:02.041Z,30.08
2023-01-19T06:28:30.400Z,24.15
2023-01-19T06:30:58.592Z,24.77
2023-01-19T06:33:28.792Z,24.30
2023-01-19T06:35:57.215Z,22.95
2023-01-19T06:38:25.654Z,28.58
2023-01-19T06:40:54.779Z,26.08
2023-01-19T06:43:23.235Z,23.27
2023-01-19T06:45:51.626Z,24.27
2023-01-19T06:48:19.938Z,25.02
2023-01-19T06:50:49.887Z,26.02
2023-01-19T06:53:20.657Z,22.27
2023-01-19T06:55:49.128Z,24.05
2023-01-19T06:58:17.582Z,25.40
2023-01-19T07:00:45.661Z,26.02
2023-01-19T07:03:20.610Z,22.23
2023-01-19T07:05:52.416Z,23.48
2023-01-19T07:08:20.806Z,23.88
2023-01-19T07:11:26.056Z,25.13
2023-01-19T07:13:38.381Z,23.77
2023-01-19T07:16:08.236Z,27.98
2023-01-19T07:18:37.209Z,20.55
2023-01-19T07:21:07.622Z,21.20
2023-01-19T07:23:36.223Z,25.00
2023-01-19T07:26:04.488Z,23.17
2023-01-19T07:28:32.956Z,24.35
2023-01-19T07:31:01.145Z,20.42
2023-01-19T07:33:29.759Z,21.27
2023-01-19T07:35:58.455Z,20.50
2023-01-19T07:38:28.162Z,23.00
2023-01-19T07:41:01.197Z,21.27
2023-01-19T07:43:29.444Z,18.98
2023-01-19T07:45:57.972Z,20.88
2023-01-19T07:48:26.315Z,20.40
2023-01-19T07:50:54.651Z,22.20
2023-01-19T07:53:23.137Z,23.63
2023-01-19T07:55:56.669Z,23.10
2023-01-19T07:58:24.964Z,23.85
2023-01-19T08:00:53.062Z,24.07
2023-01-19T08:03:21.373Z,21.27
2023-01-19T08:05:51.771Z,23.20
2023-01-19T08:08:20.263Z,25.90
2023-01-19T08:10:51.128Z,24.08
2023-01-19T08:13:20.866Z,22.13
2023-01-19T08:15:50.508Z,22.25
2023-01-19T08:18:18.820Z,22.65
2023-01-19T08:20:46.951Z,24.05
2023-01-19T08:23:15.182Z,22.08
2023-01-19T08:25:45.225Z,23.60
2023-01-19T08:28:14.868Z,21.20
2023-01-19T08:30:45.322Z,25.63
2023-01-19T08:33:14.174Z,23.02
2023-01-19T08:35:44.239Z,23.50
2023-01-19T08:38:12.543Z,20.60
2023-01-19T08:40:42.026Z,21.92
2023-01-19T08:43:12.733Z,25.10
2023-01-19T08:45:46.414Z,24.48
2023-01-19T08:48:16.859Z,22.13
2023-01-19T08:50:46.607Z,20.73
2023-01-19T08:53:15.458Z,22.45
2023-01-19T08:55:43.755Z,22.25
2023-01-19T08:58:12.121Z,20.55
2023-01-19T09:00:40.942Z,20.40
2023-01-19T09:03:11.512Z,21.07
2023-01-19T09:05:41.086Z,21.92
2023-01-19T09:08:11.606Z,23.05
2023-01-19T09:10:40.817Z,24.15
2023-01-19T09:13:10.867Z,20.23
2023-01-19T09:15:39.536Z,21.47
2023-01-19T09:18:10.120Z,21.10
2023-01-19T09:20:39.101Z,20.88
2023-01-19T09:23:10.571Z,21.88
2023-01-19T09:25:38.968Z,21.10
2023-01-19T09:28:09.153Z,18.93
2023-01-19T09:30:37.719Z,21.48
2023-01-19T09:33:07.439Z,20.98
2023-01-19T09:35:36.234Z,20.50
2023-01-19T09:38:04.907Z,20.02
2023-01-19T09:40:34.401Z,22.70
2023-01-19T09:43:13.507Z,21.25
2023-01-19T09:45:46.946Z,24.30
2023-01-19T09:48:33.207Z,22.05
2023-01-19T09:51:03.631Z,24.90
2023-01-19T09:53:43.380Z,25.50
2023-01-19T09:56:14.942Z,22.75
2023-01-19T09:58:43.385Z,22.38
2023-01-19T10:01:23.586Z,23.50
2023-01-19T10:04:03.783Z,22.48
2023-01-19T10:06:31.883Z,24.83
2023-01-19T10:09:05.192Z,21.55
2023-01-19T10:11:52.091Z,26.55
2023-01-19T10:14:27.306Z,22.65
2023-01-19T10:17:02.398Z,23.35
2023-01-19T10:19:33.605Z,23.17
2023-01-19T10:22:05.968Z,21.13
2023-01-19T10:24:39.779Z,22.50
2023-01-19T10:27:14.612Z,23.20
2023-01-19T10:29:42.999Z,22.20
2023-01-19T10:32:13.679Z,24.87
2023-01-19T10:34:42.248Z,21.33
2023-01-19T10:37:18.380Z,26.08
2023-01-19T10:39:47.291Z,23.25
2023-01-19T10:42:17.493Z,23.80
2023-01-19T10:44:46.209Z,22.27
2023-01-19T10:47:17.515Z,23.90
2023-01-19T10:49:45.945Z,22.85
2023-01-19T10:52:22.240Z,21.70
2023-01-19T10:54:50.523Z,21.02
2023-01-19T10:57:27.781Z,21.90
2023-01-19T10:59:56.202Z,21.05
2023-01-19T11:02:26.933Z,19.33
2023-01-19T11:04:57.285Z,23.25
2023-01-19T11:07:29.218Z,20.38
2023-01-19T11:10:21.092Z,21.60
2023-01-19T11:12:57.395Z,21.15
2023-01-19T11:15:26.884Z,23.70
2023-01-19T11:17:55.319Z,21.38
2023-01-19T11:20:25.487Z,21.48
2023-01-19T11:23:05.482Z,22.63
2023-01-19T11:25:35.728Z,22.80
2023-01-19T11:28:05.511Z,24.30
2023-01-19T11:30:35.999Z,21.90
2023-01-19T11:33:05.745Z,21.02
2023-01-19T11:35:39.375Z,22.03
2023-01-19T11:38:09.215Z,22.27
2023-01-19T11:40:37.504Z,23.15
2023-01-19T11:43:06.838Z,22.42
2023-01-19T11:45:35.829Z,22.15
2023-01-19T11:48:05.714Z,22.90
2023-01-19T11:50:36.580Z,20.35
2023-01-19T11:53:08.049Z,22.65
2023-01-19T11:55:39.131Z,23.63
2023-01-19T11:58:10.264Z,20.60
2023-01-19T12:00:42.461Z,20.77
2023-01-19T12:03:14.868Z,19.77
2023-01-19T12:05:48.176Z,21.02
2023-01-19T12:08:19.575Z,19.27
2023-01-19T12:10:48.642Z,19.05
2023-01-19T12:13:22.698Z,18.93
2023-01-19T12:15:54.952Z,20.25
2023-01-19T12:18:24.380Z,22.20
2023-01-19T12:20:54.057Z,21.35
2023-01-19T12:23:37.074Z,22.58
2023-01-19T12:26:17.379Z,22.47
2023-01-19T12:28:49.318Z,23.60
2023-01-19T12:31:19.284Z,19.52
2023-01-19T12:33:47.783Z,17.88
2023-01-19T12:36:40.061Z,17.88
2023-01-19T12:39:16.772Z,19.63
2023-01-19T12:41:45.822Z,19.85
2023-01-19T12:44:22.447Z,20.90
2023-01-19T12:46:54.452Z,18.23
2023-01-19T12:49:27.401Z,19.38
2023-01-19T12:52:12.414Z,18.53
2023-01-19T12:54:43.009Z,18.60
2023-01-19T12:57:19.362Z,18.48
2023-01-19T12:59:57.278Z,17.65
2023-01-19T13:02:45.157Z,20.25
2023-01-19T13:05:25.408Z,18.30
2023-01-19T13:08:17.984Z,19.55
2023-01-19T13:11:20.625Z,19.27
2023-01-19T13:14:30.452Z,22.77
2023-01-19T13:17:13.960Z,17.45
2023-01-19T13:19:48.831Z,17.83
2023-01-19T13:23:04.687Z,18.52
2023-01-19T13:25:35.435Z,33.60
2023-01-19T13:28:09.927Z,17.70
2023-01-19T13:30:41.235Z,15.70
2023-01-19T13:33:23.474Z,15.37
2023-01-19T13:35:54.197Z,15.18
2023-01-19T13:38:23.863Z,18.40
2023-01-19T13:40:53.041Z,18.90
2023-01-19T13:43:26.600Z,13.50
2023-01-19T13:45:55.251Z,13.07
2023-01-19T13:48:25.825Z,12.65
2023-01-19T13:50:59.130Z,16.13
2023-01-19T13:53:27.330Z,12.57
2023-01-19T13:56:14.115Z,17.67
2023-01-19T13:58:42.219Z,12.20
2023-01-19T14:01:22.022Z,14.75
2023-01-19T14:03:53.055Z,14.65
2023-01-19T14:06:36.202Z,14.52
2023-01-19T14:09:16.969Z,12.45
2023-01-19T14:11:46.397Z,13.17
2023-01-19T14:14:25.343Z,15.48
2023-01-19T14:16:53.957Z,12.85
2023-01-19T14:19:23.343Z,13.43
2023-01-19T14:22:02.650Z,19.98
2023-01-19T14:24:32.881Z,15.63
2023-01-19T14:27:19.781Z,15.50
2023-01-19T14:29:50.435Z,12.93
2023-01-19T14:32:20.377Z,15.20
2023-01-19T14:34:51.354Z,13.73
2023-01-19T14:37:22.833Z,16.70
2023-01-19T14:39:52.402Z,16.02
2023-01-19T14:42:24.987Z,18.70
2023-01-19T14:44:54.487Z,19.95
2023-01-19T14:47:33.316Z,20.70
2023-01-19T14:50:07.430Z,18.10
2023-01-19T14:52:39.644Z,21.33
2023-01-19T14:55:16.290Z,15.05
2023-01-19T14:57:44.592Z,17.08
2023-01-19T15:00:17.359Z,13.65
2023-01-19T15:02:46.548Z,20.37
2023-01-19T15:05:17.066Z,17.80
2023-01-19T15:07:46.805Z,17.42
2023-01-19T15:10:21.547Z,19.75
2023-01-19T15:12:50.424Z,16.02
2023-01-19T15:15:19.749Z,15.87
2023-01-19T15:17:48.188Z,13.85
2023-01-19T15:20:19.511Z,14.93
2023-01-19T15:22:48.387Z,15.93
2023-01-19T15:25:17.934Z,14.45
2023-01-19T15:27:46.852Z,16.30
2023-01-19T15:30:17.286Z,15.88
2023-01-19T15:32:45.917Z,13.73
2023-01-19T15:35:15.610Z,14.30
2023-01-19T15:37:45.532Z,14.45
2023-01-19T15:40:14.562Z,14.37
2023-01-19T15:42:43.374Z,14.60
2023-01-19T15:45:28.878Z,15.57
2023-01-19T15:47:57.171Z,14.52
2023-01-19T15:50:26.241Z,14.90
2023-01-19T15:52:55.951Z,13.50
2023-01-19T15:55:24.366Z,11.50
2023-01-19T15:57:52.711Z,10.93
2023-01-19T16:00:20.910Z,12.40
2023-01-19T16:02:51.886Z,11.10
2023-01-19T16:05:21.605Z,12.07
2023-01-19T16:07:52.484Z,12.05
2023-01-19T16:10:22.184Z,12.27
2023-01-19T16:12:50.408Z,12.20
2023-01-19T16:15:18.951Z,10.82
2023-01-19T16:17:47.189Z,15.30
2023-01-19T16:20:15.658Z,13.00
2023-01-19T16:22:44.213Z,15.98
2023-01-19T16:25:12.737Z,14.40
2023-01-19T16:27:42.311Z,15.73
2023-01-19T16:30:12.869Z,14.13
2023-01-19T16:32:41.269Z,14.30
2023-01-19T16:35:09.662Z,14.50
2023-01-19T16:37:37.944Z,14.50
2023-01-19T16:40:06.944Z,14.30
2023-01-19T16:42:35.224Z,14.30
2023-01-19T16:45:05.207Z,15.23
2023-01-19T16:47:33.547Z,12.60
2023-01-19T16:50:01.498Z,15.52
2023-01-19T16:52:29.727Z,15.73
2023-01-19T16:54:57.864Z,13.87
2023-01-19T16:57:26.205Z,13.88
2023-01-19T16:59:54.183Z,16.00
2023-01-19T17:02:23.775Z,14.15
2023-01-19T17:04:51.981Z,13.23
2023-01-19T17:07:20.422Z,15.70
2023-01-19T17:09:48.398Z,15.20
2023-01-19T17:12:16.575Z,16.42
2023-01-19T17:14:47.144Z,15.40
2023-01-19T17:17:15.570Z,15.98
2023-01-19T17:19:45.745Z,16.37
2023-01-19T17:22:14.980Z,12.45
2023-01-19T17:24:43.594Z,16.08
2023-01-19T17:27:11.824Z,19.10
2023-01-19T17:29:39.805Z,19.30
2023-01-19T17:32:08.044Z,15.53
2023-01-19T17:34:36.049Z,14.68
2023-01-19T17:37:05.711Z,17.58
2023-01-19T17:39:33.729Z,16.58
2023-01-19T17:42:01.973Z,16.35
2023-01-19T17:44:29.967Z,17.63
2023-01-19T17:46:59.967Z,16.90
2023-01-19T17:49:28.336Z,16.05
2023-01-19T17:51:56.629Z,18.35
2023-01-19T17:54:26.024Z,18.05
2023-01-19T17:56:56.077Z,22.73
2023-01-19T17:59:24.119Z,18.58
2023-01-19T18:01:52.464Z,20.50
2023-01-19T18:04:20.549Z,22.27
2023-01-19T18:06:50.042Z,22.95
2023-01-19T18:09:18.015Z,23.67
2023-01-19T18:11:47.642Z,22.00
2023-01-19T18:14:15.790Z,24.98
2023-01-19T18:16:44.014Z,21.88
2023-01-19T18:19:12.143Z,27.23
2023-01-19T18:21:40.441Z,20.00
2023-01-19T18:24:08.770Z,19.05
2023-01-19T18:26:37.568Z,19.48
2023-01-19T18:29:06.896Z,19.55
2023-01-19T18:31:35.324Z,17.27
2023-01-19T18:34:04.162Z,18.10
2023-01-19T18:36:34.081Z,19.92
2023-01-19T18:39:02.458Z,13.88
2023-01-19T18:41:30.944Z,15.27
2023-01-19T18:43:59.589Z,16.63
2023-01-19T18:46:29.356Z,16.20
2023-01-19T18:48:57.720Z,12.80
2023-01-19T18:51:26.026Z,13.30
2023-01-19T18:53:54.045Z,15.93
2023-01-19T18:56:22.464Z,11.77
2023-01-19T18:58:50.645Z,13.07
2023-01-19T19:01:22.440Z,13.05
2023-01-19T19:03:52.648Z,13.38
2023-01-19T19:06:21.779Z,12.82
2023-01-19T19:08:50.675Z,15.10
2023-01-19T19:11:19.789Z,13.47
2023-01-19T19:13:51.862Z,12.63
2023-01-19T19:16:20.168Z,12.70
2023-01-19T19:18:49.927Z,13.55
2023-01-19T19:21:22.583Z,12.88
2023-01-19T19:23:51.441Z,16.73
2023-01-19T19:26:19.875Z,16.25
2023-01-19T19:28:48.247Z,15.13
2023-01-19T19:31:20.284Z,15.00
2023-01-19T19:33:50.652Z,15.00
2023-01-19T19:36:21.215Z,14.17
2023-01-19T19:38:49.322Z,13.70
2023-01-19T19:41:19.456Z,12.38
2023-01-19T19:43:47.826Z,12.00
2023-01-19T19:46:17.744Z,11.45
2023-01-19T19:48:45.764Z,13.23
2023-01-19T19:51:19.558Z,11.02
2023-01-19T19:53:51.490Z,13.07
2023-01-19T19:56:21.231Z,12.18
2023-01-19T19:58:49.930Z,12.25
2023-01-19T20:01:20.385Z,12.67
2023-01-19T20:03:48.949Z,12.55
2023-01-19T20:06:20.716Z,13.32
2023-01-19T20:08:50.717Z,12.02
2023-01-19T20:11:21.758Z,12.48
2023-01-19T20:13:50.694Z,13.63
2023-01-19T20:16:20.560Z,14.70
2023-01-19T20:18:51.353Z,13.02
2023-01-19T20:21:21.212Z,12.30
2023-01-19T20:23:52.839Z,14.93
2023-01-19T20:26:24.884Z,13.87
2023-01-19T20:28:52.955Z,14.60
2023-01-19T20:31:22.832Z,12.43
2023-01-19T20:33:52.335Z,12.18
2023-01-19T20:36:21.928Z,13.95
2023-01-19T20:38:51.532Z,13.90
2023-01-19T20:41:21.065Z,13.38
2023-01-19T20:43:49.191Z,13.15
2023-01-19T20:46:17.706Z,14.23
2023-01-19T20:48:50.612Z,13.70
2023-01-19T20:51:20.132Z,13.10
2023-01-19T20:53:48.760Z,13.75
2023-01-19T20:56:18.423Z,15.10
2023-01-19T20:58:46.471Z,13.68
2023-01-19T21:01:17.109Z,14.73
2023-01-19T21:03:45.610Z,17.50
2023-01-19T21:06:14.401Z,13.80
2023-01-19T21:08:42.759Z,14.45
2023-01-19T21:11:13.130Z,15.63
2023-01-19T21:13:42.689Z,15.48
2023-01-19T21:16:13.082Z,15.27
2023-01-19T21:18:46.004Z,17.58
2023-01-19T21:21:28.881Z,15.05
2023-01-19T21:23:57.769Z,16.75
2023-01-19T21:26:26.066Z,14.73
2023-01-19T21:28:55.426Z,16.17
2023-01-19T21:31:27.107Z,17.90
2023-01-19T21:33:55.512Z,15.60
2023-01-19T21:36:24.532Z,14.45
2023-01-19T21:38:52.769Z,15.25
2023-01-19T21:41:21.296Z,16.37
2023-01-19T21:43:49.276Z,15.68
2023-01-19T21:46:21.136Z,17.58
2023-01-19T21:48:49.171Z,16.65
2023-01-19T21:51:17.451Z,17.10
2023-01-19T21:53:45.427Z,15.40
2023-01-19T21:56:13.832Z,16.23
2023-01-19T21:58:41.829Z,17.33
2023-01-19T22:01:12.578Z,16.77
2023-01-19T22:03:43.011Z,17.52
2023-01-19T22:06:13.021Z,20.80
2023-01-19T22:08:41.486Z,21.08
2023-01-19T22:11:11.877Z,20.38
2023-01-19T22:13:40.162Z,16.17
2023-01-19T22:16:10.325Z,16.30
2023-01-19T22:18:39.586Z,18.57
2023-01-19T22:21:10.246Z,21.27
2023-01-19T22:23:38.752Z,17.73
2023-01-19T22:26:07.794Z,21.08
2023-01-19T22:28:35.937Z,17.20
2023-01-19T22:31:05.887Z,19.30
2023-01-19T22:33:34.130Z,19.83
2023-01-19T22:36:15.985Z,21.23
2023-01-19T22:38:44.999Z,21.83
2023-01-19T22:41:14.837Z,23.83
2023-01-19T22:43:43.391Z,21.40
2023-01-19T22:46:12.269Z,22.42
2023-01-19T22:48:41.383Z,18.25
2023-01-19T22:51:09.952Z,19.05
2023-01-19T22:53:39.292Z,20.00
2023-01-19T22:56:11.952Z,21.57
2023-01-19T22:58:41.232Z,21.95
2023-01-19T23:01:10.796Z,19.17
2023-01-19T23:03:38.975Z,19.48
2023-01-19T23:06:09.072Z,19.58
2023-01-19T23:08:38.895Z,22.33
2023-01-19T23:11:08.266Z,20.05
2023-01-19T23:13:36.475Z,18.60
2023-01-19T23:16:05.411Z,20.35
2023-01-19T23:18:33.567Z,20.52
2023-01-19T23:21:04.828Z,19.73
2023-01-19T23:23:33.373Z,21.40
2023-01-19T23:26:04.251Z,19.33
2023-01-19T23:28:33.954Z,20.65
2023-01-19T23:31:02.383Z,20.20
2023-01-19T23:33:30.430Z,19.87
2023-01-19T23:35:58.687Z,18.50
2023-01-19T23:38:26.639Z,20.48
2023-01-19T23:40:57.874Z,19.52
2023-01-19T23:43:27.247Z,21.88
2023-01-19T23:45:55.536Z,26.27
2023-01-19T23:48:23.527Z,24.20
2023-01-19T23:50:51.883Z,23.55
2023-01-19T23:53:19.938Z,23.40
2023-01-19T23:55:48.195Z,23.48
2023-01-19T23:58:16.171Z,21.40
